ěÝzenÝ letovÚho provozu ╚eskÚ republiky
Letiste: LKMT Aktualizace: 27.10.2020 00:00:25  UTC
 METAR LKMT 27.10. 00:00 ...
METAR LKMT 270000Z 22009KT 9999 OVC036 13/10 Q1008 NOSIG RMK REG QNH 1006=
 TAF LKMT 26.10. 23:00 ...
TAF LKMT 262300Z 2700/2806 22012KT 9999 BKN025      TEMPO 2700/2706 BKN012      BECMG 2716/2718 BKN018      TEMPO 2718/2806 6000 -RA BKN008      PROB30 TEMPO 2718/2806 3000 -RA BR BKN005=